sensor_id;sensor_type;location;lat;lon;timestamp;pressure;altitude;pressure_sealevel;temperature;humidity
29359;BME280;16347;53.232;6.556;2022-10-17T00:01:04;101739.53;;;16.95;60.22
29359;BME280;16347;53.232;6.556;2022-10-17T00:03:33;101738.84;;;16.93;60.39
29359;BME280;16347;53.232;6.556;2022-10-17T00:06:04;101736.81;;;16.95;60.50
29359;BME280;16347;53.232;6.556;2022-10-17T00:08:34;101723.59;;;16.90;60.69
29359;BME280;16347;53.232;6.556;2022-10-17T00:11:04;101741.97;;;16.90;60.29
29359;BME280;16347;53.232;6.556;2022-10-17T00:13:33;101738.53;;;16.88;60.69
29359;BME280;16347;53.232;6.556;2022-10-17T00:16:02;101740.28;;;16.81;60.37
29359;BME280;16347;53.232;6.556;2022-10-17T00:18:30;101739.25;;;16.82;60.46
29359;BME280;16347;53.232;6.556;2022-10-17T00:20:58;101739.44;;;16.80;61.05
29359;BME280;16347;53.232;6.556;2022-10-17T00:23:26;101733.94;;;16.80;60.53
29359;BME280;16347;53.232;6.556;2022-10-17T00:26:01;101732.53;;;16.84;60.72
29359;BME280;16347;53.232;6.556;2022-10-17T00:28:29;101730.81;;;16.83;60.73
29359;BME280;16347;53.232;6.556;2022-10-17T00:30:59;101725.53;;;16.82;60.99
29359;BME280;16347;53.232;6.556;2022-10-17T00:33:28;101702.50;;;16.83;60.94
29359;BME280;16347;53.232;6.556;2022-10-17T00:36:04;101708.00;;;16.83;61.33
29359;BME280;16347;53.232;6.556;2022-10-17T00:38:34;101709.88;;;16.82;61.13
29359;BME280;16347;53.232;6.556;2022-10-17T00:41:06;101715.38;;;16.82;61.02
29359;BME280;16347;53.232;6.556;2022-10-17T00:43:51;101728.75;;;16.85;60.86
29359;BME280;16347;53.232;6.556;2022-10-17T00:46:21;101731.53;;;16.77;60.82
29359;BME280;16347;53.232;6.556;2022-10-17T00:48:50;101730.19;;;16.73;60.99
29359;BME280;16347;53.232;6.556;2022-10-17T00:51:24;101714.06;;;16.70;61.67
29359;BME280;16347;53.232;6.556;2022-10-17T00:53:52;101722.13;;;16.72;61.38
29359;BME280;16347;53.232;6.556;2022-10-17T00:56:22;101706.69;;;16.71;61.48
29359;BME280;16347;53.232;6.556;2022-10-17T00:58:51;101708.22;;;16.73;61.48
29359;BME280;16347;53.232;6.556;2022-10-17T01:01:19;101703.56;;;16.74;61.32
29359;BME280;16347;53.232;6.556;2022-10-17T01:03:47;101705.09;;;16.76;61.16
29359;BME280;16347;53.232;6.556;2022-10-17T01:06:15;101694.97;;;16.77;61.51
29359;BME280;16347;53.232;6.556;2022-10-17T01:08:43;101700.47;;;16.77;61.49
29359;BME280;16347;53.232;6.556;2022-10-17T01:11:19;101707.69;;;16.78;61.22
29359;BME280;16347;53.232;6.556;2022-10-17T01:13:55;101716.59;;;16.80;61.41
29359;BME280;16347;53.232;6.556;2022-10-17T01:16:38;101708.19;;;16.81;61.44
29359;BME280;16347;53.232;6.556;2022-10-17T01:19:28;101704.59;;;16.81;61.62
29359;BME280;16347;53.232;6.556;2022-10-17T01:22:05;101709.06;;;16.74;61.37
29359;BME280;16347;53.232;6.556;2022-10-17T01:24:47;101697.06;;;16.75;61.96
29359;BME280;16347;53.232;6.556;2022-10-17T01:27:50;101684.50;;;16.80;61.68
29359;BME280;16347;53.232;6.556;2022-10-17T01:31:06;101679.66;;;16.82;61.95
29359;BME280;16347;53.232;6.556;2022-10-17T01:33:44;101675.09;;;16.75;62.01
29359;BME280;16347;53.232;6.556;2022-10-17T01:36:21;101672.34;;;16.75;62.23
29359;BME280;16347;53.232;6.556;2022-10-17T01:38:55;101672.34;;;16.75;62.30
29359;BME280;16347;53.232;6.556;2022-10-17T01:41:31;101665.44;;;16.79;62.30
29359;BME280;16347;53.232;6.556;2022-10-17T01:44:06;101663.91;;;16.76;62.35
29359;BME280;16347;53.232;6.556;2022-10-17T01:46:39;101665.63;;;16.77;62.08
29359;BME280;16347;53.232;6.556;2022-10-17T01:49:10;101649.50;;;16.74;62.61
29359;BME280;16347;53.232;6.556;2022-10-17T01:51:43;101646.19;;;16.79;62.81
29359;BME280;16347;53.232;6.556;2022-10-17T01:54:16;101640.19;;;16.83;62.84
29359;BME280;16347;53.232;6.556;2022-10-17T01:56:47;101638.97;;;16.86;62.71
29359;BME280;16347;53.232;6.556;2022-10-17T01:59:19;101629.84;;;16.85;63.14
29359;BME280;16347;53.232;6.556;2022-10-17T02:01:52;101629.53;;;16.88;62.64
29359;BME280;16347;53.232;6.556;2022-10-17T02:04:22;101631.03;;;16.91;62.47
29359;BME280;16347;53.232;6.556;2022-10-17T02:06:51;101634.31;;;16.86;62.66
29359;BME280;16347;53.232;6.556;2022-10-17T02:09:22;101638.47;;;16.82;62.86
29359;BME280;16347;53.232;6.556;2022-10-17T02:12:10;101629.53;;;16.88;63.29
29359;BME280;16347;53.232;6.556;2022-10-17T02:14:49;101612.72;;;16.83;63.41
29359;BME280;16347;53.232;6.556;2022-10-17T02:17:29;101603.63;;;16.83;63.53
29359;BME280;16347;53.232;6.556;2022-10-17T02:20:09;101596.22;;;16.83;63.35
29359;BME280;16347;53.232;6.556;2022-10-17T02:22:46;101588.19;;;16.82;63.39
29359;BME280;16347;53.232;6.556;2022-10-17T02:25:22;101579.47;;;16.78;63.55
29359;BME280;16347;53.232;6.556;2022-10-17T02:28:00;101580.97;;;16.81;63.75
29359;BME280;16347;53.232;6.556;2022-10-17T02:30:35;101582.69;;;16.82;63.67
29359;BME280;16347;53.232;6.556;2022-10-17T02:33:10;101578.22;;;16.81;63.51
29359;BME280;16347;53.232;6.556;2022-10-17T02:35:42;101576.50;;;16.80;63.66
29359;BME280;16347;53.232;6.556;2022-10-17T02:38:17;101572.13;;;16.71;64.09
29359;BME280;16347;53.232;6.556;2022-10-17T02:40:45;101570.53;;;16.76;63.76
29359;BME280;16347;53.232;6.556;2022-10-17T02:43:16;101574.00;;;16.70;64.27
29359;BME280;16347;53.232;6.556;2022-10-17T02:45:45;101568.03;;;16.67;64.35
29359;BME280;16347;53.232;6.556;2022-10-17T02:48:18;101568.69;;;16.69;64.34
29359;BME280;16347;53.232;6.556;2022-10-17T02:50:57;101565.94;;;16.69;64.34
29359;BME280;16347;53.232;6.556;2022-10-17T02:53:38;101564.41;;;16.66;64.54
29359;BME280;16347;53.232;6.556;2022-10-17T02:56:13;101568.53;;;16.62;64.64
29359;BME280;16347;53.232;6.556;2022-10-17T02:58:47;101565.13;;;16.60;64.85
29359;BME280;16347;53.232;6.556;2022-10-17T03:01:17;101561.03;;;16.56;65.01
29359;BME280;16347;53.232;6.556;2022-10-17T03:03:48;101558.28;;;16.56;65.07
29359;BME280;16347;53.232;6.556;2022-10-17T03:06:16;101555.53;;;16.56;65.17
29359;BME280;16347;53.232;6.556;2022-10-17T03:08:45;101556.41;;;16.57;65.21
29359;BME280;16347;53.232;6.556;2022-10-17T03:11:12;101555.53;;;16.56;65.30
29359;BME280;16347;53.232;6.556;2022-10-17T03:13:41;101562.94;;;16.48;65.08
29359;BME280;16347;53.232;6.556;2022-10-17T03:16:09;101553.34;;;16.52;65.29
29359;BME280;16347;53.232;6.556;2022-10-17T03:18:37;101542.25;;;16.37;65.63
29359;BME280;16347;53.232;6.556;2022-10-17T03:21:08;101542.06;;;16.38;65.93
29359;BME280;16347;53.232;6.556;2022-10-17T03:23:35;101531.28;;;16.37;66.36
29359;BME280;16347;53.232;6.556;2022-10-17T03:26:05;101534.00;;;16.37;66.10
29359;BME280;16347;53.232;6.556;2022-10-17T03:28:34;101541.09;;;16.31;66.49
29359;BME280;16347;53.232;6.556;2022-10-17T03:31:07;101536.63;;;16.30;66.77
29359;BME280;16347;53.232;6.556;2022-10-17T03:33:37;101536.78;;;16.29;66.60
29359;BME280;16347;53.232;6.556;2022-10-17T03:36:08;101519.53;;;16.20;67.00
29359;BME280;16347;53.232;6.556;2022-10-17T03:38:37;101507.03;;;16.18;67.39
29359;BME280;16347;53.232;6.556;2022-10-17T03:41:06;101519.59;;;16.04;67.94
29359;BME280;16347;53.232;6.556;2022-10-17T03:43:36;101522.50;;;16.03;68.08
29359;BME280;16347;53.232;6.556;2022-10-17T03:46:04;101523.88;;;16.07;68.11
29359;BME280;16347;53.232;6.556;2022-10-17T03:48:33;101524.38;;;16.10;68.14
29359;BME280;16347;53.232;6.556;2022-10-17T03:51:04;101535.78;;;15.83;68.80
29359;BME280;16347;53.232;6.556;2022-10-17T03:53:39;101531.69;;;15.79;69.38
29359;BME280;16347;53.232;6.556;2022-10-17T03:56:08;101533.41;;;15.80;69.47
29359;BME280;16347;53.232;6.556;2022-10-17T03:58:37;101533.03;;;15.83;69.57
29359;BME280;16347;53.232;6.556;2022-10-17T04:01:06;101538.03;;;15.71;70.24
29359;BME280;16347;53.232;6.556;2022-10-17T04:03:34;101527.78;;;15.65;70.20
29359;BME280;16347;53.232;6.556;2022-10-17T04:06:03;101525.88;;;15.66;70.70
29359;BME280;16347;53.232;6.556;2022-10-17T04:08:34;101522.28;;;15.65;71.19
29359;BME280;16347;53.232;6.556;2022-10-17T04:11:13;101509.78;;;15.71;71.20
29359;BME280;16347;53.232;6.556;2022-10-17T04:13:42;101501.38;;;15.72;70.93
29359;BME280;16347;53.232;6.556;2022-10-17T04:16:12;101524.69;;;15.68;70.80
29359;BME280;16347;53.232;6.556;2022-10-17T04:18:52;101523.44;;;15.79;71.32
29359;BME280;16347;53.232;6.556;2022-10-17T04:21:23;101530.56;;;16.04;70.70
29359;BME280;16347;53.232;6.556;2022-10-17T04:23:55;101533.03;;;15.91;70.50
29359;BME280;16347;53.232;6.556;2022-10-17T04:27:00;101530.94;;;15.93;70.66
29359;BME280;16347;53.232;6.556;2022-10-17T04:29:31;101526.19;;;15.87;70.81
29359;BME280;16347;53.232;6.556;2022-10-17T04:32:10;101523.06;;;15.90;70.72
29359;BME280;16347;53.232;6.556;2022-10-17T04:34:42;101526.13;;;15.95;70.69
29359;BME280;16347;53.232;6.556;2022-10-17T04:37:10;101523.94;;;15.82;71.45
29359;BME280;16347;53.232;6.556;2022-10-17T04:39:38;101517.91;;;15.95;71.26
29359;BME280;16347;53.232;6.556;2022-10-17T04:42:08;101521.72;;;15.86;71.35
29359;BME280;16347;53.232;6.556;2022-10-17T04:44:36;101516.38;;;15.93;71.93
29359;BME280;16347;53.232;6.556;2022-10-17T04:47:04;101515.84;;;15.97;71.99
29359;BME280;16347;53.232;6.556;2022-10-17T04:49:32;101509.16;;;16.00;72.12
29359;BME280;16347;53.232;6.556;2022-10-17T04:52:07;101535.00;;;16.05;71.92
29359;BME280;16347;53.232;6.556;2022-10-17T04:54:41;101535.50;;;16.09;71.90
29359;BME280;16347;53.232;6.556;2022-10-17T04:57:13;101536.78;;;15.98;72.77
29359;BME280;16347;53.232;6.556;2022-10-17T04:59:49;101537.94;;;16.04;72.87
29359;BME280;16347;53.232;6.556;2022-10-17T05:02:24;101530.06;;;16.01;73.22
29359;BME280;16347;53.232;6.556;2022-10-17T05:04:52;101523.38;;;16.03;73.40
29359;BME280;16347;53.232;6.556;2022-10-17T05:07:21;101515.28;;;16.10;73.45
29359;BME280;16347;53.232;6.556;2022-10-17T05:10:03;101510.66;;;16.10;73.73
29359;BME280;16347;53.232;6.556;2022-10-17T05:12:33;101514.28;;;16.03;74.29
29359;BME280;16347;53.232;6.556;2022-10-17T05:15:04;101520.75;;;16.10;74.15
29359;BME280;16347;53.232;6.556;2022-10-17T05:17:33;101516.72;;;15.98;74.75
29359;BME280;16347;53.232;6.556;2022-10-17T05:20:01;101510.28;;;16.13;74.60
29359;BME280;16347;53.232;6.556;2022-10-17T05:22:33;101513.00;;;16.21;74.34
29359;BME280;16347;53.232;6.556;2022-10-17T05:25:07;101516.28;;;16.17;74.54
29359;BME280;16347;53.232;6.556;2022-10-17T05:27:36;101519.00;;;16.25;74.67
29359;BME280;16347;53.232;6.556;2022-10-17T05:30:06;101515.38;;;16.24;74.70
29359;BME280;16347;53.232;6.556;2022-10-17T05:32:35;101509.72;;;16.26;74.52
29359;BME280;16347;53.232;6.556;2022-10-17T05:35:04;101507.72;;;16.12;75.49
29359;BME280;16347;53.232;6.556;2022-10-17T05:37:33;101488.66;;;16.18;75.67
29359;BME280;16347;53.232;6.556;2022-10-17T05:40:02;101500.69;;;16.17;75.76
29359;BME280;16347;53.232;6.556;2022-10-17T05:42:30;101497.50;;;16.28;75.43
29359;BME280;16347;53.232;6.556;2022-10-17T05:45:00;101493.75;;;16.29;75.39
29359;BME280;16347;53.232;6.556;2022-10-17T05:47:31;101493.75;;;16.29;75.28
29359;BME280;16347;53.232;6.556;2022-10-17T05:49:59;101499.44;;;16.28;75.36
29359;BME280;16347;53.232;6.556;2022-10-17T05:52:43;101504.25;;;16.57;74.79
29359;BME280;16347;53.232;6.556;2022-10-17T05:55:14;101504.91;;;16.28;75.31
29359;BME280;16347;53.232;6.556;2022-10-17T05:57:43;101512.28;;;16.27;75.90
29359;BME280;16347;53.232;6.556;2022-10-17T06:00:17;101510.91;;;16.31;75.98
29359;BME280;16347;53.232;6.556;2022-10-17T06:02:52;101505.28;;;16.25;76.22
29359;BME280;16347;53.232;6.556;2022-10-17T06:05:22;101517.03;;;16.33;76.17
29359;BME280;16347;53.232;6.556;2022-10-17T06:07:50;101507.84;;;16.18;77.01
29359;BME280;16347;53.232;6.556;2022-10-17T06:10:24;101513.34;;;16.18;76.84
29359;BME280;16347;53.232;6.556;2022-10-17T06:12:53;101513.31;;;16.26;76.97
29359;BME280;16347;53.232;6.556;2022-10-17T06:15:23;101514.69;;;16.22;77.09
29359;BME280;16347;53.232;6.556;2022-10-17T06:17:59;101519.66;;;16.27;77.09
29359;BME280;16347;53.232;6.556;2022-10-17T06:20:27;101523.06;;;16.29;77.19
29359;BME280;16347;53.232;6.556;2022-10-17T06:22:56;101529.59;;;16.28;77.16
29359;BME280;16347;53.232;6.556;2022-10-17T06:25:42;101529.06;;;16.32;77.36
29359;BME280;16347;53.232;6.556;2022-10-17T06:28:10;101530.41;;;16.36;77.24
29359;BME280;16347;53.232;6.556;2022-10-17T06:30:40;101525.78;;;16.37;77.49
29359;BME280;16347;53.232;6.556;2022-10-17T06:33:08;101524.25;;;16.34;77.84
29359;BME280;16347;53.232;6.556;2022-10-17T06:35:36;101530.88;;;16.48;77.49
29359;BME280;16347;53.232;6.556;2022-10-17T06:38:04;101536.03;;;16.43;77.17
29359;BME280;16347;53.232;6.556;2022-10-17T06:40:34;101549.22;;;16.48;77.57
29359;BME280;16347;53.232;6.556;2022-10-17T06:43:02;101555.25;;;16.43;77.71
29359;BME280;16347;53.232;6.556;2022-10-17T06:45:56;101568.94;;;16.51;77.43
29359;BME280;16347;53.232;6.556;2022-10-17T06:48:35;101575.63;;;16.57;77.29
29359;BME280;16347;53.232;6.556;2022-10-17T06:51:12;101583.63;;;16.66;77.44
29359;BME280;16347;53.232;6.556;2022-10-17T06:53:53;101583.50;;;16.60;77.76
29359;BME280;16347;53.232;6.556;2022-10-17T06:56:44;101575.75;;;16.63;77.65
29359;BME280;16347;53.232;6.556;2022-10-17T06:59:28;101567.72;;;16.62;77.88
29359;BME280;16347;53.232;6.556;2022-10-17T07:02:20;101566.00;;;16.61;77.78
29359;BME280;16347;53.232;6.556;2022-10-17T07:04:50;101570.75;;;16.67;77.48
29359;BME280;16347;53.232;6.556;2022-10-17T07:07:18;101568.03;;;16.67;78.14
29359;BME280;16347;53.232;6.556;2022-10-17T07:09:46;101557.56;;;16.62;78.11
29359;BME280;16347;53.232;6.556;2022-10-17T07:12:16;101567.84;;;16.68;78.41
29359;BME280;16347;53.232;6.556;2022-10-17T07:14:44;101562.00;;;16.71;78.00
29359;BME280;16347;53.232;6.556;2022-10-17T07:17:13;101569.78;;;16.82;77.73
29359;BME280;16347;53.232;6.556;2022-10-17T07:19:43;101577.22;;;16.82;78.28
29359;BME280;16347;53.232;6.556;2022-10-17T07:22:11;101580.66;;;16.76;78.46
29359;BME280;16347;53.232;6.556;2022-10-17T07:24:43;101579.47;;;16.78;78.51
29359;BME280;16347;53.232;6.556;2022-10-17T07:27:26;101585.88;;;16.93;78.15
29359;BME280;16347;53.232;6.556;2022-10-17T07:29:55;101598.56;;;16.95;78.15
29359;BME280;16347;53.232;6.556;2022-10-17T07:32:32;101596.97;;;17.00;78.31
29359;BME280;16347;53.232;6.556;2022-10-17T07:35:03;101598.69;;;17.01;78.42
29359;BME280;16347;53.232;6.556;2022-10-17T07:37:32;101588.75;;;17.00;78.52
29359;BME280;16347;53.232;6.556;2022-10-17T07:40:00;101585.94;;;17.08;78.74
29359;BME280;16347;53.232;6.556;2022-10-17T07:42:29;101588.81;;;17.15;78.26
29359;BME280;16347;53.232;6.556;2022-10-17T07:44:57;101597.84;;;17.23;78.17
29359;BME280;16347;53.232;6.556;2022-10-17T07:47:27;101600.03;;;17.28;77.99
29359;BME280;16347;53.232;6.556;2022-10-17T07:49:58;101601.19;;;17.33;77.67
29359;BME280;16347;53.232;6.556;2022-10-17T07:52:27;101611.78;;;17.22;78.12
29359;BME280;16347;53.232;6.556;2022-10-17T07:54:56;101612.06;;;17.27;78.19
29359;BME280;16347;53.232;6.556;2022-10-17T07:57:24;101607.25;;;17.29;78.29
29359;BME280;16347;53.232;6.556;2022-10-17T07:59:52;101611.91;;;17.28;78.76
29359;BME280;16347;53.232;6.556;2022-10-17T08:02:23;101611.22;;;17.26;78.73
29359;BME280;16347;53.232;6.556;2022-10-17T08:04:52;101627.28;;;17.15;79.98
29359;BME280;16347;53.232;6.556;2022-10-17T08:07:21;101635.53;;;17.15;79.91
29359;BME280;16347;53.232;6.556;2022-10-17T08:09:55;101635.09;;;17.26;80.34
29359;BME280;16347;53.232;6.556;2022-10-17T08:12:23;101645.88;;;17.35;79.95
29359;BME280;16347;53.232;6.556;2022-10-17T08:14:51;101642.75;;;17.38;79.48
29359;BME280;16347;53.232;6.556;2022-10-17T08:17:19;101631.66;;;17.47;79.37
29359;BME280;16347;53.232;6.556;2022-10-17T08:19:47;101633.63;;;17.38;79.97
29359;BME280;16347;53.232;6.556;2022-10-17T08:22:15;101633.38;;;17.48;79.58
29359;BME280;16347;53.232;6.556;2022-10-17T08:24:43;101644.00;;;17.51;79.53
29359;BME280;16347;53.232;6.556;2022-10-17T08:27:13;101637.84;;;17.49;79.71
29359;BME280;16347;53.232;6.556;2022-10-17T08:29:46;101620.53;;;17.40;80.47
29359;BME280;16347;53.232;6.556;2022-10-17T08:32:18;101610.97;;;17.59;79.70
29359;BME280;16347;53.232;6.556;2022-10-17T08:34:46;101597.34;;;17.65;79.63
29359;BME280;16347;53.232;6.556;2022-10-17T08:37:15;101609.00;;;17.67;79.02
29359;BME280;16347;53.232;6.556;2022-10-17T08:39:43;101602.94;;;17.72;79.02
29359;BME280;16347;53.232;6.556;2022-10-17T08:42:28;101596.53;;;17.79;78.70
29359;BME280;16347;53.232;6.556;2022-10-17T08:45:06;101621.38;;;17.86;78.65
29359;BME280;16347;53.232;6.556;2022-10-17T08:47:40;101621.19;;;17.87;79.16
29359;BME280;16347;53.232;6.556;2022-10-17T08:50:12;101625.75;;;17.95;79.24
29359;BME280;16347;53.232;6.556;2022-10-17T08:52:46;101624.34;;;17.99;78.58
29359;BME280;16347;53.232;6.556;2022-10-17T08:55:28;101627.66;;;17.94;78.86
29359;BME280;16347;53.232;6.556;2022-10-17T08:58:00;101644.09;;;18.03;78.61
29359;BME280;16347;53.232;6.556;2022-10-17T09:00:29;101647.50;;;18.05;78.59
29359;BME280;16347;53.232;6.556;2022-10-17T09:03:08;101662.38;;;18.10;78.89
29359;BME280;16347;53.232;6.556;2022-10-17T09:05:46;101685.94;;;18.13;78.79
29359;BME280;16347;53.232;6.556;2022-10-17T09:08:27;101682.22;;;18.20;78.37
29359;BME280;16347;53.232;6.556;2022-10-17T09:11:02;101682.22;;;18.20;78.73
29359;BME280;16347;53.232;6.556;2022-10-17T09:13:53;101694.31;;;18.19;78.90
29359;BME280;16347;53.232;6.556;2022-10-17T09:16:41;101710.06;;;18.25;78.54
29359;BME280;16347;53.232;6.556;2022-10-17T09:19:17;101729.25;;;18.33;78.20
29359;BME280;16347;53.232;6.556;2022-10-17T09:21:48;101770.06;;;18.30;78.75
29359;BME280;16347;53.232;6.556;2022-10-17T09:24:23;101766.84;;;18.26;78.93
29359;BME280;16347;53.232;6.556;2022-10-17T09:26:54;101779.81;;;18.18;79.59
29359;BME280;16347;53.232;6.556;2022-10-17T09:29:25;101786.97;;;18.04;80.25
29359;BME280;16347;53.232;6.556;2022-10-17T09:32:07;101778.72;;;18.04;80.75
29359;BME280;16347;53.232;6.556;2022-10-17T09:34:38;101800.38;;;18.07;80.42
29359;BME280;16347;53.232;6.556;2022-10-17T09:37:11;101787.84;;;18.05;80.21
29359;BME280;16347;53.232;6.556;2022-10-17T09:39:41;101797.34;;;18.02;80.47
29359;BME280;16347;53.232;6.556;2022-10-17T09:42:13;101807.28;;;18.03;80.66
29359;BME280;16347;53.232;6.556;2022-10-17T09:44:48;101818.75;;;17.92;80.66
29359;BME280;16347;53.232;6.556;2022-10-17T09:47:23;101822.97;;;18.03;80.31
29359;BME280;16347;53.232;6.556;2022-10-17T09:49:52;101822.16;;;17.94;80.88
29359;BME280;16347;53.232;6.556;2022-10-17T09:52:25;101802.16;;;18.00;81.14
29359;BME280;16347;53.232;6.556;2022-10-17T09:54:58;101809.38;;;18.01;81.11
29359;BME280;16347;53.232;6.556;2022-10-17T09:57:52;101812.13;;;18.01;81.48
29359;BME280;16347;53.232;6.556;2022-10-17T10:00:23;101805.34;;;18.12;81.28
29359;BME280;16347;53.232;6.556;2022-10-17T10:03:07;101816.94;;;18.22;81.06
29359;BME280;16347;53.232;6.556;2022-10-17T10:05:35;101808.50;;;18.23;80.48
29359;BME280;16347;53.232;6.556;2022-10-17T10:08:05;101808.94;;;18.12;80.83
29359;BME280;16347;53.232;6.556;2022-10-17T10:10:39;101824.66;;;18.26;81.20
29359;BME280;16347;53.232;6.556;2022-10-17T10:13:17;101814.63;;;17.88;82.25
29359;BME280;16347;53.232;6.556;2022-10-17T10:15:49;101815.41;;;17.97;82.75
29359;BME280;16347;53.232;6.556;2022-10-17T10:18:28;101809.38;;;18.01;82.68
29359;BME280;16347;53.232;6.556;2022-10-17T10:21:04;101812.38;;;17.91;82.58
29359;BME280;16347;53.232;6.556;2022-10-17T10:23:33;101821.28;;;17.93;82.88
29359;BME280;16347;53.232;6.556;2022-10-17T10:26:19;101814.22;;;17.99;83.29
29359;BME280;16347;53.232;6.556;2022-10-17T10:28:52;101815.63;;;17.95;83.00
29359;BME280;16347;53.232;6.556;2022-10-17T10:31:28;101805.88;;;18.07;82.70
29359;BME280;16347;53.232;6.556;2022-10-17T10:33:58;101800.00;;;18.10;82.78
29359;BME280;16347;53.232;6.556;2022-10-17T10:36:42;101799.63;;;18.13;82.62
29359;BME280;16347;53.232;6.556;2022-10-17T10:39:31;101779.34;;;18.14;83.03
29359;BME280;16347;53.232;6.556;2022-10-17T10:42:01;101779.44;;;18.21;82.22
29359;BME280;16347;53.232;6.556;2022-10-17T10:44:31;101787.91;;;18.19;82.26
29359;BME280;16347;53.232;6.556;2022-10-17T10:47:18;101790.47;;;18.21;82.65
29359;BME280;16347;53.232;6.556;2022-10-17T10:49:49;101792.47;;;18.27;82.06
29359;BME280;16347;53.232;6.556;2022-10-17T10:52:28;101794.44;;;18.18;82.28
29359;BME280;16347;53.232;6.556;2022-10-17T10:55:03;101786.66;;;18.22;82.57
29359;BME280;16347;53.232;6.556;2022-10-17T10:57:38;101783.00;;;18.29;82.21
29359;BME280;16347;53.232;6.556;2022-10-17T11:00:11;101786.41;;;18.31;82.32
29359;BME280;16347;53.232;6.556;2022-10-17T11:02:48;101772.75;;;18.38;82.33
29359;BME280;16347;53.232;6.556;2022-10-17T11:05:24;101770.53;;;18.33;82.55
29359;BME280;16347;53.232;6.556;2022-10-17T11:08:02;101770.44;;;18.27;82.18
29359;BME280;16347;53.232;6.556;2022-10-17T11:10:37;101768.00;;;18.32;82.76
29359;BME280;16347;53.232;6.556;2022-10-17T11:13:14;101771.22;;;18.35;82.60
29359;BME280;16347;53.232;6.556;2022-10-17T11:15:47;101770.84;;;18.38;81.90
29359;BME280;16347;53.232;6.556;2022-10-17T11:18:21;101789.50;;;18.51;82.17
29359;BME280;16347;53.232;6.556;2022-10-17T11:20:52;101815.53;;;18.26;82.21
29359;BME280;16347;53.232;6.556;2022-10-17T11:23:27;101824.72;;;18.18;82.80
29359;BME280;16347;53.232;6.556;2022-10-17T11:26:01;101831.84;;;18.13;83.62
29359;BME280;16347;53.232;6.556;2022-10-17T11:28:30;101838.16;;;18.13;83.99
29359;BME280;16347;53.232;6.556;2022-10-17T11:31:00;101830.97;;;18.12;83.75
29359;BME280;16347;53.232;6.556;2022-10-17T11:33:43;101837.34;;;18.13;84.06
29359;BME280;16347;53.232;6.556;2022-10-17T11:36:13;101842.84;;;18.13;84.03
29359;BME280;16347;53.232;6.556;2022-10-17T11:38:47;101841.66;;;18.07;84.56
29359;BME280;16347;53.232;6.556;2022-10-17T11:41:21;101853.00;;;18.12;84.91
29359;BME280;16347;53.232;6.556;2022-10-17T11:43:56;101867.53;;;18.21;84.65
29359;BME280;16347;53.232;6.556;2022-10-17T11:46:27;101868.94;;;17.94;84.89
29359;BME280;16347;53.232;6.556;2022-10-17T11:49:03;101870.13;;;18.00;85.54
29359;BME280;16347;53.232;6.556;2022-10-17T11:51:39;101874.28;;;17.96;85.41
29359;BME280;16347;53.232;6.556;2022-10-17T11:54:31;101880.56;;;18.04;85.31
29359;BME280;16347;53.232;6.556;2022-10-17T11:57:15;101889.44;;;18.14;84.62
29359;BME280;16347;53.232;6.556;2022-10-17T11:59:56;101888.88;;;17.96;84.72
29359;BME280;16347;53.232;6.556;2022-10-17T12:02:34;101898.34;;;17.93;83.93
29359;BME280;16347;53.232;6.556;2022-10-17T12:05:18;101891.31;;;17.91;84.80
29359;BME280;16347;53.232;6.556;2022-10-17T12:07:53;101888.03;;;17.96;84.58
29359;BME280;16347;53.232;6.556;2022-10-17T12:10:37;101899.16;;;18.02;84.20
29359;BME280;16347;53.232;6.556;2022-10-17T12:13:46;101891.81;;;17.94;83.35
29359;BME280;16347;53.232;6.556;2022-10-17T12:16:38;101887.78;;;18.05;82.91
29359;BME280;16347;53.232;6.556;2022-10-17T12:19:22;101905.31;;;18.04;82.22
29359;BME280;16347;53.232;6.556;2022-10-17T12:22:02;101896.78;;;17.99;82.55
29359;BME280;16347;53.232;6.556;2022-10-17T12:24:39;101892.44;;;18.05;82.06
29359;BME280;16347;53.232;6.556;2022-10-17T12:27:31;101904.34;;;18.20;82.27
29359;BME280;16347;53.232;6.556;2022-10-17T12:30:02;101899.81;;;18.04;81.88
29359;BME280;16347;53.232;6.556;2022-10-17T12:32:31;101905.28;;;18.12;81.82
29359;BME280;16347;53.232;6.556;2022-10-17T12:35:22;101905.81;;;18.08;81.90
29359;BME280;16347;53.232;6.556;2022-10-17T12:38:23;101907.97;;;18.20;81.86
29359;BME280;16347;53.232;6.556;2022-10-17T12:40:59;101908.94;;;18.27;81.84
29359;BME280;16347;53.232;6.556;2022-10-17T12:46:46;101921.72;;;18.20;82.02
29359;BME280;16347;53.232;6.556;2022-10-17T12:49:36;101921.56;;;18.22;82.57
29359;BME280;16347;53.232;6.556;2022-10-17T12:52:17;101928.78;;;18.23;81.98
29359;BME280;16347;53.232;6.556;2022-10-17T12:54:51;101933.25;;;18.24;81.29
29359;BME280;16347;53.232;6.556;2022-10-17T12:57:41;101942.19;;;18.26;81.51
29359;BME280;16347;53.232;6.556;2022-10-17T13:00:17;101936.31;;;18.29;81.43
29359;BME280;16347;53.232;6.556;2022-10-17T13:02:47;101939.97;;;18.21;80.77
29359;BME280;16347;53.232;6.556;2022-10-17T13:05:23;101942.75;;;18.13;80.58
29359;BME280;16347;53.232;6.556;2022-10-17T13:07:54;101942.63;;;18.07;81.27
29359;BME280;16347;53.232;6.556;2022-10-17T13:10:27;101941.84;;;17.98;81.15
29359;BME280;16347;53.232;6.556;2022-10-17T13:13:03;101948.72;;;17.94;81.50
29359;BME280;16347;53.232;6.556;2022-10-17T13:15:33;101950.75;;;18.00;81.11
29359;BME280;16347;53.232;6.556;2022-10-17T13:18:02;101962.19;;;17.89;80.95
29359;BME280;16347;53.232;6.556;2022-10-17T13:20:31;101965.63;;;17.83;81.15
29359;BME280;16347;53.232;6.556;2022-10-17T13:22:59;101969.66;;;17.72;81.32
29359;BME280;16347;53.232;6.556;2022-10-17T13:25:29;101980.19;;;17.61;81.20
29359;BME280;16347;53.232;6.556;2022-10-17T13:28:06;101974.97;;;17.74;81.46